Jacksonville, TX (75766)

3:42 AM CDT on August 30, 2014 (GMT -0500)
Cherokee County | Change Station
CLOSE
Current Station
Airport
Location: Jacksonville,
Elevation: 676 ft
Nearby Weather Stations

Elev 676 ft 31.87 °N, 95.22 °W | Updated 7 minutes ago

Overcast
Overcast
73 °F
Feels Like 73 °F
N
5
Wind Variable Wind from SSE

Today
High -- | Low -- °F
--% Chance of Precip.
Yesterday
High -- | Low -- °F
Precip. -- in
6:55 AM 7:47 PM
Waxing Crescent, 20% visible
Pressure 29.97 in
Visibility 10.0 miles
Clouds Overcast 1600 ft
Dew Point 72 °F
Humidity 94%
Rainfall 0.00 in
Snow Depth Not available.
UV 0 out of 12
Pollen 9.20 out of 12
Ozone Good
PM2.5 Good
Flu Activity Not available.
METAR KJSO 300835Z AUTO 15004KT 10SM OVC016 23/22 A2997 RMK AO2 T02300220

More Conditions Fewer Conditions

Pressure 29.97 in
Visibility 10.0 miles
Clouds Overcast 1600 ft
Dew Point 72 °F
Humidity 94%
Rainfall 0.00 in
Snow Depth Not available.
UV 0 out of 12
Pollen 9.20 out of 12
Ozone Good
PM2.5 Good
Flu Activity Not available.
METAR KJSO 300835Z AUTO 15004KT 10SM OVC016 23/22 A2997 RMK AO2 T02300220

More Conditions Fewer Conditions

10-Day Weather Forecast

Almanac

Astronomy

Aug. 30, 2014 Rise Set
Actual Time 6:55 AM CDT 7:47 PM CDT
Civil Twilight 6:30 AM CDT 8:12 PM CDT
Nautical Twilight 6:00 AM CDT 8:41 PM CDT
Astronomical Twilight 5:30 AM CDT 9:12 PM CDT
Moon 11:24 AM CDT 10:42 PM CDT
Length of Visible Light 13h 42m
Length of Day
12h 52m
Tomorrow will be 1m 52s shorter.
Waxing Crescent, 20% of the Moon is Illuminated
Today
Waxing Crescent
Sep 2
First Quarter
Sep 8
Full
Sep 15
Last Quarter
Sep 24
New

Today's Extremes

State Highs State Lows

Community

WunderPhotos

Upload Photos

1,748,474 photos uploaded!

Nearby

Air Quality

  Air Quality AQ Index Pollutant
Yesterday Good
OZONE
Yesterday Good
PM2.5
Current Good
OZONE
Current Good
PM2.5
Saturday Good
OZONE
Saturday Good
PM10
Sunday Good
OZONE
Sunday Good
PM10
Monday Good
OZONE
Monday Good
PM10
Tuesday Good
OZONE
Tuesday Good
PM10

Snow Depth

Station Depth Elevation
No new snow has been reported.

Earthquake Activity

City Distance Mag. Time & Date
No recent earthquake activity has been reported nearby.
Minimum magnitude displayed is 2.5.

Coastal Water Temperatures

Place Temperature
No Stations Reporting

Nearby Weather Stations